createdAt,value
2024-01-28T00:00:23.143Z,20.90
2024-01-28T00:03:12.113Z,23.73
2024-01-28T00:05:41.060Z,20.27
2024-01-28T00:08:09.918Z,21.67
2024-01-28T00:10:39.763Z,23.60
2024-01-28T00:13:08.364Z,15.37
2024-01-28T00:15:37.215Z,21.30
2024-01-28T00:18:06.489Z,18.43
2024-01-28T00:20:35.225Z,21.00
2024-01-28T00:23:04.379Z,20.80
2024-01-28T00:25:32.718Z,20.87
2024-01-28T00:28:02.702Z,16.80
2024-01-28T00:30:33.544Z,23.33
2024-01-28T00:33:03.306Z,22.77
2024-01-28T00:35:31.843Z,23.00
2024-01-28T00:38:00.389Z,26.70
2024-01-28T00:40:28.769Z,22.70
2024-01-28T00:42:58.312Z,22.53
2024-01-28T00:45:27.972Z,19.67
2024-01-28T00:47:56.731Z,25.47
2024-01-28T00:50:25.297Z,24.90
2024-01-28T00:52:54.051Z,27.70
2024-01-28T00:55:22.466Z,17.80
2024-01-28T00:57:51.142Z,18.87
2024-01-28T01:00:20.309Z,25.40
2024-01-28T01:02:50.272Z,17.57
2024-01-28T01:05:18.803Z,20.47
2024-01-28T01:07:47.414Z,22.50
2024-01-28T01:10:16.746Z,29.20
2024-01-28T01:12:45.351Z,22.27
2024-01-28T01:15:13.710Z,21.23
2024-01-28T01:17:43.275Z,20.73
2024-01-28T01:20:13.699Z,32.40
2024-01-28T01:22:42.362Z,21.17
2024-01-28T01:25:11.136Z,22.57
2024-01-28T01:27:39.852Z,24.77
2024-01-28T01:30:09.442Z,21.37
2024-01-28T01:32:41.303Z,27.27
2024-01-28T01:35:10.641Z,21.37
2024-01-28T01:37:40.696Z,24.70
2024-01-28T01:40:10.126Z,26.27
2024-01-28T01:42:39.042Z,23.23
2024-01-28T01:45:08.894Z,21.17
2024-01-28T01:47:38.175Z,25.67
2024-01-28T01:50:07.982Z,25.47
2024-01-28T01:52:36.871Z,18.43
2024-01-28T01:55:08.102Z,21.60
2024-01-28T01:57:38.568Z,23.43
2024-01-28T02:00:09.221Z,22.40
2024-01-28T02:02:38.162Z,27.93
2024-01-28T02:05:07.502Z,23.50
2024-01-28T02:07:36.175Z,22.93
2024-01-28T02:10:06.504Z,22.63
2024-01-28T02:12:35.312Z,24.73
2024-01-28T02:15:08.011Z,22.87
2024-01-28T02:17:36.707Z,23.20
2024-01-28T02:20:06.713Z,22.77
2024-01-28T02:22:35.296Z,19.40
2024-01-28T02:25:05.636Z,24.57
2024-01-28T02:27:34.240Z,22.20
2024-01-28T02:30:02.571Z,19.63
2024-01-28T02:32:31.306Z,21.57
2024-01-28T02:35:00.830Z,22.57
2024-01-28T02:37:29.458Z,25.97
2024-01-28T02:39:57.883Z,20.37
2024-01-28T02:42:28.145Z,22.43
2024-01-28T02:44:56.490Z,24.87
2024-01-28T02:47:25.068Z,19.67
2024-01-28T02:49:53.472Z,21.03
2024-01-28T02:52:22.263Z,23.93
2024-01-28T02:54:50.714Z,15.90
2024-01-28T02:57:19.587Z,21.50
2024-01-28T02:59:49.225Z,23.97
2024-01-28T03:02:18.360Z,24.87
2024-01-28T03:04:47.105Z,28.73
2024-01-28T03:07:16.791Z,22.47
2024-01-28T03:09:45.461Z,21.77
2024-01-28T03:12:14.194Z,22.90
2024-01-28T03:14:42.538Z,25.43
2024-01-28T03:17:13.034Z,21.60
2024-01-28T03:19:41.404Z,21.83
2024-01-28T03:22:10.035Z,29.97
2024-01-28T03:24:41.285Z,20.23
2024-01-28T03:27:09.993Z,18.93
2024-01-28T03:29:38.383Z,24.53
2024-01-28T03:32:07.942Z,20.70
2024-01-28T03:34:37.722Z,21.90
2024-01-28T03:37:06.342Z,28.03
2024-01-28T03:39:34.734Z,25.73
2024-01-28T03:42:03.290Z,19.37
2024-01-28T03:44:31.833Z,25.67
2024-01-28T03:47:00.675Z,25.10
2024-01-28T03:49:29.702Z,22.63
2024-01-28T03:51:59.824Z,21.30
2024-01-28T03:54:28.195Z,21.90
2024-01-28T03:56:56.754Z,23.97
2024-01-28T03:59:25.396Z,24.17
2024-01-28T04:01:54.133Z,20.97
2024-01-28T04:04:22.649Z,20.80
2024-01-28T04:06:51.378Z,26.17
2024-01-28T04:09:21.235Z,23.00
2024-01-28T04:11:49.811Z,22.90
2024-01-28T04:14:18.316Z,26.07
2024-01-28T04:16:46.922Z,24.23
2024-01-28T04:19:15.359Z,24.67
2024-01-28T04:21:44.131Z,24.90
2024-01-28T04:24:12.726Z,26.33
2024-01-28T04:26:42.812Z,22.97
2024-01-28T04:29:12.087Z,26.90
2024-01-28T04:31:44.191Z,25.03
2024-01-28T04:34:12.800Z,22.90
2024-01-28T04:36:41.531Z,23.33
2024-01-28T04:39:10.611Z,24.30
2024-01-28T04:41:39.313Z,25.50
2024-01-28T04:44:09.852Z,28.70
2024-01-28T04:46:38.758Z,26.87
2024-01-28T04:49:07.276Z,21.77
2024-01-28T04:51:36.041Z,24.50
2024-01-28T04:54:04.794Z,26.83
2024-01-28T04:56:33.636Z,21.17
2024-01-28T04:59:03.775Z,25.17
2024-01-28T05:01:34.599Z,23.70
2024-01-28T05:04:03.305Z,22.63
2024-01-28T05:06:36.289Z,19.63
2024-01-28T05:09:05.546Z,25.60
2024-01-28T05:11:34.377Z,23.27
2024-01-28T05:14:03.042Z,18.97
2024-01-28T05:16:32.984Z,28.60
2024-01-28T05:19:03.133Z,20.53
2024-01-28T05:21:32.003Z,24.03
2024-01-28T05:24:01.738Z,29.70
2024-01-28T05:26:32.411Z,28.57
2024-01-28T05:29:05.338Z,19.27
2024-01-28T05:31:35.821Z,20.00
2024-01-28T05:34:04.659Z,24.53
2024-01-28T05:36:33.385Z,24.17
2024-01-28T05:39:01.810Z,21.33
2024-01-28T05:41:31.091Z,21.30
2024-01-28T05:43:59.370Z,23.37
2024-01-28T05:46:27.994Z,21.90
2024-01-28T05:48:57.855Z,22.67
2024-01-28T05:51:28.313Z,27.77
2024-01-28T05:53:57.051Z,21.27
2024-01-28T05:56:25.606Z,25.03
2024-01-28T05:58:53.023Z,24.63
2024-01-28T06:01:21.844Z,23.40
2024-01-28T06:03:50.358Z,17.60
2024-01-28T06:06:20.536Z,24.57
2024-01-28T06:08:49.044Z,23.13
2024-01-28T06:11:17.678Z,26.23
2024-01-28T06:13:46.017Z,24.07
2024-01-28T06:16:14.749Z,25.47
2024-01-28T06:18:46.172Z,28.20
2024-01-28T06:21:17.580Z,25.10
2024-01-28T06:23:48.659Z,25.87
2024-01-28T06:26:19.274Z,21.23
2024-01-28T06:28:47.856Z,23.10
2024-01-28T06:31:17.866Z,20.47
2024-01-28T06:33:46.269Z,29.43
2024-01-28T06:36:21.350Z,25.00
2024-01-28T06:38:52.572Z,29.40
2024-01-28T06:41:21.253Z,30.33
2024-01-28T06:43:51.239Z,28.60
2024-01-28T06:46:22.251Z,22.43
2024-01-28T06:48:50.718Z,24.40
2024-01-28T06:51:23.298Z,27.20
2024-01-28T06:53:53.299Z,29.93
2024-01-28T06:56:22.541Z,28.83
2024-01-28T06:58:50.906Z,26.07
2024-01-28T07:01:20.196Z,27.87
2024-01-28T07:03:48.657Z,24.97
2024-01-28T07:06:17.403Z,22.77
2024-01-28T07:08:46.021Z,39.97
2024-01-28T07:11:19.117Z,39.03
2024-01-28T07:13:47.526Z,40.40
2024-01-28T07:16:17.703Z,36.63
2024-01-28T07:18:46.143Z,43.83
2024-01-28T07:21:19.351Z,51.93
2024-01-28T07:23:51.037Z,44.20
2024-01-28T07:26:21.104Z,41.37
2024-01-28T07:28:49.376Z,43.07
2024-01-28T07:31:17.975Z,41.33
2024-01-28T07:33:46.416Z,33.40
2024-01-28T07:36:17.133Z,42.10
2024-01-28T07:38:46.628Z,38.23
2024-01-28T07:41:16.455Z,35.70
2024-01-28T07:43:46.326Z,39.17
2024-01-28T07:46:17.317Z,43.67
2024-01-28T07:48:45.905Z,38.37
2024-01-28T07:51:14.670Z,47.73
2024-01-28T07:53:44.922Z,46.30
2024-01-28T07:56:18.455Z,42.50
2024-01-28T07:58:52.890Z,44.83
2024-01-28T08:01:21.463Z,45.00
2024-01-28T08:03:50.944Z,38.40
2024-01-28T08:06:19.651Z,38.93
2024-01-28T08:08:47.926Z,35.40
2024-01-28T08:11:16.592Z,45.83
2024-01-28T08:13:46.173Z,37.67
2024-01-28T08:16:18.790Z,36.03
2024-01-28T08:18:47.328Z,37.53
2024-01-28T08:21:16.285Z,32.80
2024-01-28T08:23:44.667Z,41.97
2024-01-28T08:26:15.992Z,32.57
2024-01-28T08:28:45.031Z,33.63
2024-01-28T08:31:14.061Z,31.90
2024-01-28T08:33:43.793Z,37.37
2024-01-28T08:36:12.512Z,40.27
2024-01-28T08:38:44.269Z,44.90
2024-01-28T08:41:13.693Z,44.07
2024-01-28T08:43:44.483Z,40.50
2024-01-28T08:46:13.198Z,38.47
2024-01-28T08:48:42.943Z,39.27
2024-01-28T08:51:11.684Z,36.87
2024-01-28T08:53:39.994Z,38.17
2024-01-28T08:56:10.179Z,37.77
2024-01-28T08:58:38.573Z,36.10
2024-01-28T09:01:09.201Z,33.07
2024-01-28T09:03:37.785Z,36.17
2024-01-28T09:06:08.169Z,36.20
2024-01-28T09:08:36.722Z,34.00
2024-01-28T09:11:05.604Z,35.40
2024-01-28T09:13:33.950Z,36.40
2024-01-28T09:16:02.638Z,38.27
2024-01-28T09:18:31.126Z,43.63
2024-01-28T09:21:00.404Z,41.77
2024-01-28T09:23:30.064Z,37.30
2024-01-28T09:25:58.640Z,37.83
2024-01-28T09:28:26.990Z,43.50
2024-01-28T09:30:55.683Z,39.33
2024-01-28T09:33:24.344Z,42.80
2024-01-28T09:35:53.557Z,36.83
2024-01-28T09:38:22.252Z,37.40
2024-01-28T09:40:53.745Z,42.20
2024-01-28T09:43:30.203Z,49.23
2024-01-28T09:46:00.450Z,33.27
2024-01-28T09:48:29.372Z,34.07
2024-01-28T09:50:58.096Z,35.73
2024-01-28T09:53:26.467Z,36.30
2024-01-28T09:55:56.898Z,33.97
2024-01-28T09:58:25.348Z,31.17
2024-01-28T10:00:55.596Z,39.10
2024-01-28T10:03:24.101Z,35.10
2024-01-28T10:05:53.142Z,31.77
2024-01-28T10:08:21.477Z,32.10
2024-01-28T10:10:50.028Z,34.60
2024-01-28T10:13:19.729Z,33.60
2024-01-28T10:15:56.186Z,28.70
2024-01-28T10:18:25.162Z,30.97
2024-01-28T10:20:54.250Z,40.30
2024-01-28T10:23:22.672Z,39.97
2024-01-28T10:25:51.505Z,40.37
2024-01-28T10:28:22.787Z,43.10
2024-01-28T10:30:51.821Z,27.77
2024-01-28T10:33:20.494Z,37.43
2024-01-28T10:35:49.684Z,30.67
2024-01-28T10:38:21.547Z,26.13
2024-01-28T10:40:52.914Z,37.20
2024-01-28T10:43:28.391Z,33.70
2024-01-28T10:45:59.894Z,35.73
2024-01-28T10:48:31.528Z,36.03
2024-01-28T10:51:02.351Z,32.40
2024-01-28T10:53:31.350Z,38.10
2024-01-28T10:56:01.327Z,37.93
2024-01-28T10:58:31.860Z,29.23
2024-01-28T11:01:01.383Z,32.23
2024-01-28T11:03:30.602Z,23.93
2024-01-28T11:05:59.486Z,25.13
2024-01-28T11:08:29.136Z,29.90
2024-01-28T11:10:57.876Z,32.70
2024-01-28T11:13:26.477Z,30.83
2024-01-28T11:15:58.129Z,28.53
2024-01-28T11:18:30.705Z,34.17
2024-01-28T11:20:59.368Z,32.80
2024-01-28T11:23:31.224Z,29.93
2024-01-28T11:26:01.384Z,35.43
2024-01-28T11:28:31.592Z,28.63
2024-01-28T11:31:01.863Z,33.00
2024-01-28T11:33:37.364Z,37.53
2024-01-28T11:36:07.817Z,35.30
2024-01-28T11:38:41.888Z,34.67
2024-01-28T11:41:16.266Z,27.73
2024-01-28T11:43:44.685Z,44.00
2024-01-28T11:46:15.397Z,37.17
2024-01-28T11:48:44.237Z,28.17
2024-01-28T11:51:12.980Z,28.00
2024-01-28T11:53:44.788Z,36.37
2024-01-28T11:56:13.454Z,35.77
2024-01-28T11:58:41.770Z,33.57
2024-01-28T12:01:10.642Z,31.50
2024-01-28T12:03:41.123Z,29.97
2024-01-28T12:06:10.417Z,28.07
2024-01-28T12:08:41.830Z,29.20
2024-01-28T12:11:10.506Z,26.57
2024-01-28T12:13:38.941Z,28.33
2024-01-28T12:16:08.163Z,35.57
2024-01-28T12:18:41.173Z,33.47
2024-01-28T12:21:18.390Z,32.87
2024-01-28T12:23:48.073Z,28.93
2024-01-28T12:26:17.588Z,29.53
2024-01-28T12:28:47.824Z,33.43
2024-01-28T12:31:16.404Z,37.33
2024-01-28T12:33:48.076Z,32.73
2024-01-28T12:36:17.210Z,32.83
2024-01-28T12:38:45.572Z,32.07
2024-01-28T12:41:14.711Z,29.83
2024-01-28T12:43:44.486Z,32.60
2024-01-28T12:46:13.107Z,28.77
2024-01-28T12:48:41.470Z,30.57
2024-01-28T12:51:11.606Z,32.03
2024-01-28T12:53:40.089Z,32.43
2024-01-28T12:56:09.108Z,32.07
2024-01-28T12:58:37.609Z,35.33
2024-01-28T13:01:07.973Z,38.73
2024-01-28T13:03:36.510Z,38.07
2024-01-28T13:06:06.456Z,30.70
2024-01-28T13:08:36.365Z,27.13
2024-01-28T13:11:06.249Z,30.73
2024-01-28T13:13:37.693Z,27.97
2024-01-28T13:16:07.322Z,30.70
2024-01-28T13:18:36.560Z,30.13
2024-01-28T13:21:05.722Z,23.40
2024-01-28T13:23:35.152Z,35.53
2024-01-28T13:26:05.372Z,31.67
2024-01-28T13:28:34.263Z,29.20
2024-01-28T13:31:03.038Z,32.73
2024-01-28T13:33:31.713Z,25.87
2024-01-28T13:36:00.612Z,35.63
2024-01-28T13:38:29.242Z,44.43
2024-01-28T13:40:57.841Z,30.47
2024-01-28T13:43:27.485Z,29.23
2024-01-28T13:45:57.588Z,29.83
2024-01-28T13:48:26.242Z,30.97
2024-01-28T13:50:54.999Z,23.73
2024-01-28T13:53:23.352Z,33.77
2024-01-28T13:55:51.993Z,30.70
2024-01-28T13:58:20.432Z,30.37
2024-01-28T14:00:50.416Z,29.17
2024-01-28T14:03:18.951Z,35.57
2024-01-28T14:05:48.644Z,43.90
2024-01-28T14:08:17.072Z,35.97
2024-01-28T14:10:45.668Z,24.17
2024-01-28T14:13:14.152Z,25.10
2024-01-28T14:15:42.845Z,26.60
2024-01-28T14:18:12.729Z,34.07
2024-01-28T14:20:41.489Z,27.90
2024-01-28T14:23:09.775Z,26.00
2024-01-28T14:25:38.426Z,30.13
2024-01-28T14:28:07.286Z,32.47
2024-01-28T14:30:35.938Z,31.23
2024-01-28T14:33:04.682Z,40.30
2024-01-28T14:35:36.966Z,33.70
2024-01-28T14:38:06.821Z,34.43
2024-01-28T14:40:35.443Z,39.40
2024-01-28T14:43:02.943Z,41.73
2024-01-28T14:45:31.617Z,37.13
2024-01-28T14:48:01.287Z,41.67
2024-01-28T14:50:30.272Z,32.43
2024-01-28T14:53:00.033Z,38.90
2024-01-28T14:55:28.663Z,34.10
2024-01-28T14:57:57.206Z,37.43
2024-01-28T15:00:26.204Z,50.87
2024-01-28T15:02:54.660Z,43.40
2024-01-28T15:05:23.436Z,38.27
2024-01-28T15:07:51.798Z,33.83
2024-01-28T15:10:25.210Z,40.90
2024-01-28T15:12:55.580Z,36.10
2024-01-28T15:15:24.299Z,31.17
2024-01-28T15:17:54.547Z,42.03
2024-01-28T15:20:23.894Z,34.20
2024-01-28T15:22:52.443Z,36.80
2024-01-28T15:25:22.448Z,36.50
2024-01-28T15:27:51.028Z,39.90
2024-01-28T15:30:19.854Z,41.93
2024-01-28T15:32:48.666Z,42.93
2024-01-28T15:35:18.694Z,41.73
2024-01-28T15:37:47.257Z,39.47
2024-01-28T15:40:16.002Z,49.63
2024-01-28T15:42:46.166Z,40.97
2024-01-28T15:45:14.980Z,39.20
2024-01-28T15:47:43.989Z,42.47
2024-01-28T15:50:15.672Z,36.00
2024-01-28T15:52:44.024Z,42.63
2024-01-28T15:55:22.298Z,42.07
2024-01-28T15:57:56.468Z,38.17
2024-01-28T16:00:25.246Z,49.67
2024-01-28T16:02:53.639Z,39.20
2024-01-28T16:05:22.395Z,41.57
2024-01-28T16:07:51.476Z,56.83
2024-01-28T16:10:21.223Z,38.97
2024-01-28T16:12:49.797Z,37.33
2024-01-28T16:15:19.848Z,43.63
2024-01-28T16:17:48.316Z,41.63
2024-01-28T16:20:17.217Z,46.43
2024-01-28T16:22:46.812Z,35.83
2024-01-28T16:25:15.510Z,43.07
2024-01-28T16:27:51.333Z,36.87
2024-01-28T16:30:21.323Z,35.93
2024-01-28T16:32:48.856Z,41.77
2024-01-28T16:35:19.199Z,38.83
2024-01-28T16:37:48.034Z,38.63
2024-01-28T16:40:16.743Z,44.47
2024-01-28T16:42:45.758Z,38.27
2024-01-28T16:45:17.250Z,39.70
2024-01-28T16:47:47.939Z,34.13
2024-01-28T16:50:17.650Z,49.03
2024-01-28T16:52:46.094Z,41.87
2024-01-28T16:55:17.378Z,43.37
2024-01-28T16:57:48.446Z,40.73
2024-01-28T17:00:17.959Z,38.07
2024-01-28T17:02:47.705Z,43.87
2024-01-28T17:05:16.557Z,49.20
2024-01-28T17:07:45.026Z,39.30
2024-01-28T17:10:14.675Z,38.13
2024-01-28T17:12:43.208Z,39.77
2024-01-28T17:15:12.243Z,41.30
2024-01-28T17:17:41.254Z,43.77
2024-01-28T17:20:11.512Z,32.50
2024-01-28T17:22:40.226Z,47.50
2024-01-28T17:25:11.775Z,37.57
2024-01-28T17:27:42.557Z,45.43
2024-01-28T17:30:12.199Z,43.23
2024-01-28T17:32:40.951Z,47.30
2024-01-28T17:35:11.268Z,61.03
2024-01-28T17:37:40.106Z,52.33
2024-01-28T17:40:09.769Z,54.43
2024-01-28T17:42:38.512Z,57.50
2024-01-28T17:45:07.480Z,47.83
2024-01-28T17:47:38.661Z,54.13
2024-01-28T17:50:11.086Z,50.37
2024-01-28T17:52:39.891Z,45.77
2024-01-28T17:55:10.293Z,45.60
2024-01-28T17:57:39.032Z,52.17
2024-01-28T18:00:09.765Z,55.80
2024-01-28T18:02:41.632Z,56.93
2024-01-28T18:05:11.852Z,45.90
2024-01-28T18:07:40.868Z,52.53
2024-01-28T18:10:10.660Z,56.53
2024-01-28T18:12:39.457Z,49.17
2024-01-28T18:15:09.090Z,49.90
2024-01-28T18:17:37.953Z,51.97
2024-01-28T18:20:07.193Z,55.07
2024-01-28T18:22:38.115Z,49.90
2024-01-28T18:25:07.186Z,65.73
2024-01-28T18:27:36.404Z,62.77
2024-01-28T18:30:05.145Z,58.13
2024-01-28T18:32:33.832Z,59.03
2024-01-28T18:35:02.334Z,54.17
2024-01-28T18:37:31.220Z,56.73
2024-01-28T18:40:01.086Z,54.37
2024-01-28T18:42:29.949Z,57.67
2024-01-28T18:44:58.281Z,50.90
2024-01-28T18:47:27.357Z,63.20
2024-01-28T18:49:55.915Z,61.83
2024-01-28T18:52:24.548Z,55.87
2024-01-28T18:54:52.986Z,64.73
2024-01-28T18:57:23.102Z,50.33
2024-01-28T18:59:51.841Z,48.80
2024-01-28T19:02:20.809Z,55.77
2024-01-28T19:04:49.318Z,55.63
2024-01-28T19:07:18.035Z,51.27
2024-01-28T19:09:46.831Z,53.60
2024-01-28T19:12:15.432Z,53.63
2024-01-28T19:14:45.123Z,53.37
2024-01-28T19:17:16.494Z,58.93
2024-01-28T19:19:45.723Z,49.73
2024-01-28T19:22:16.304Z,55.57
2024-01-28T19:24:45.358Z,60.90
2024-01-28T19:27:14.016Z,61.67
2024-01-28T19:29:42.928Z,61.20
2024-01-28T19:32:12.846Z,60.07
2024-01-28T19:34:41.349Z,59.17
2024-01-28T19:37:09.964Z,59.17
2024-01-28T19:39:38.453Z,59.23
2024-01-28T19:42:07.964Z,56.97
2024-01-28T19:44:36.356Z,64.90
2024-01-28T19:47:05.275Z,68.83
2024-01-28T19:49:35.070Z,58.97
2024-01-28T19:52:09.690Z,55.97
2024-01-28T19:54:39.795Z,80.40
2024-01-28T19:57:08.634Z,67.17
2024-01-28T19:59:37.038Z,79.83
2024-01-28T20:02:06.291Z,82.67
2024-01-28T20:04:36.118Z,77.10
2024-01-28T20:07:05.088Z,95.67
2024-01-28T20:09:33.519Z,89.13
2024-01-28T20:12:02.153Z,85.13
2024-01-28T20:14:36.924Z,85.03
2024-01-28T20:17:05.711Z,86.83
2024-01-28T20:19:35.701Z,87.73
2024-01-28T20:22:04.860Z,74.63
2024-01-28T20:24:33.353Z,83.23
2024-01-28T20:27:02.326Z,72.07
2024-01-28T20:29:30.785Z,80.87
2024-01-28T20:31:59.584Z,71.43
2024-01-28T20:34:28.077Z,61.63
2024-01-28T20:36:59.844Z,77.90
2024-01-28T20:39:30.780Z,82.67
2024-01-28T20:41:59.781Z,69.20
2024-01-28T20:44:28.573Z,71.53
2024-01-28T20:46:57.595Z,69.87
2024-01-28T20:49:26.061Z,67.43
2024-01-28T20:51:54.866Z,56.20
2024-01-28T20:54:24.963Z,145.53
2024-01-28T20:56:53.608Z,75.23
2024-01-28T20:59:21.928Z,72.13
2024-01-28T21:01:50.535Z,70.30
2024-01-28T21:04:19.156Z,71.63
2024-01-28T21:06:49.013Z,73.90
2024-01-28T21:09:17.412Z,56.90
2024-01-28T21:11:47.408Z,64.87
2024-01-28T21:14:17.702Z,70.40
2024-01-28T21:16:46.768Z,74.97
2024-01-28T21:19:15.356Z,64.63
2024-01-28T21:21:44.548Z,71.00
2024-01-28T21:24:13.482Z,61.43
2024-01-28T21:26:42.236Z,63.43
2024-01-28T21:29:12.437Z,58.43
2024-01-28T21:31:41.205Z,77.67
2024-01-28T21:34:10.245Z,78.70
2024-01-28T21:36:39.157Z,76.97
2024-01-28T21:39:09.040Z,64.07
2024-01-28T21:41:37.884Z,77.93
2024-01-28T21:44:08.490Z,73.50
2024-01-28T21:46:38.447Z,80.73
2024-01-28T21:49:07.161Z,67.97
2024-01-28T21:51:36.934Z,74.67
2024-01-28T21:54:05.507Z,74.37
2024-01-28T21:56:34.090Z,81.30
2024-01-28T21:59:02.438Z,65.40
2024-01-28T22:01:31.092Z,72.00
2024-01-28T22:04:00.970Z,67.30
2024-01-28T22:06:29.750Z,75.03
2024-01-28T22:08:58.125Z,85.13
2024-01-28T22:11:27.001Z,86.10
2024-01-28T22:13:55.318Z,85.40
2024-01-28T22:16:23.916Z,77.27
2024-01-28T22:18:52.248Z,89.47
2024-01-28T22:21:23.696Z,102.97
2024-01-28T22:23:52.201Z,79.33
2024-01-28T22:26:21.196Z,80.50
2024-01-28T22:28:50.301Z,87.73
2024-01-28T22:31:18.990Z,67.97
2024-01-28T22:33:47.602Z,78.97
2024-01-28T22:36:16.852Z,76.93
2024-01-28T22:38:46.577Z,83.07
2024-01-28T22:41:16.676Z,83.53
2024-01-28T22:43:45.671Z,68.10
2024-01-28T22:46:14.487Z,82.07
2024-01-28T22:48:43.003Z,71.73
2024-01-28T22:51:11.703Z,82.73
2024-01-28T22:53:39.969Z,73.47
2024-01-28T22:56:10.369Z,71.67
2024-01-28T22:58:38.746Z,160.80
2024-01-28T23:01:10.918Z,85.63
2024-01-28T23:03:39.592Z,77.30
2024-01-28T23:06:11.265Z,80.87
2024-01-28T23:08:39.686Z,73.27
2024-01-28T23:11:09.593Z,76.27
2024-01-28T23:13:39.765Z,69.00
2024-01-28T23:16:08.748Z,82.03
2024-01-28T23:18:37.484Z,82.73
2024-01-28T23:21:06.502Z,83.77
2024-01-28T23:23:35.548Z,84.23
2024-01-28T23:26:04.468Z,71.00
2024-01-28T23:28:34.086Z,93.77
2024-01-28T23:31:04.874Z,85.77
2024-01-28T23:33:33.380Z,79.40
2024-01-28T23:36:02.121Z,63.27
2024-01-28T23:38:30.572Z,79.97
2024-01-28T23:40:59.192Z,80.20
2024-01-28T23:43:27.504Z,75.30
2024-01-28T23:45:57.772Z,88.53
2024-01-28T23:48:26.238Z,72.83
2024-01-28T23:50:54.885Z,166.87
2024-01-28T23:53:23.261Z,107.50
2024-01-28T23:55:51.854Z,90.07
2024-01-28T23:58:21.157Z,112.43
